Search for airport 
image banner adimage banner adimage banner ad
image banner ad

CL62 - Station 125

Located in Calabasas, United States

ICAO - CL62, IATA -

Data provided by Airmate  

General information

Coordinates: N34°9'5" W118°41'52"
Elevation is 850 feet MSL.
Magnetic variation is 14° East
View others Airports in California

Operational data

Special qualification required
Current time UTC:
Current local time:
Weather at : KVNY - Van Nuys ( 20 km )
METAR: KVNY 210151Z 13006KT 10SM CLR 27/09 A2990 RMK AO2 SLP118 T02670094
TAF: KVNY 202334Z 2100/2124 12008KT P6SM SKC FM210400 VRB03KT P6SM SKC FM212100 12010KT P6SM SKC
View NOTAMs / SUP AIP / TFR affecting this airport [VIEW]
Communications frequencies: [VIEW]

Runways:

Airport contact information

Address: Calabasas United States

Satellite view of CL62